Time;durP1;ratioP1;P1;durP2;ratioP2;P2;SDS_P1;SDS_P2;PMS_P1;PMS_P2;Temp;Humidity;BMP_temperature;BMP_pressure;BME280_temperature;BME280_humidity;BME280_pressure;Samples;Min_cycle;Max_cycle;Signal;HPM_P1;HPM_P2
2022/01/03 00:01:22;;;;;;;13.20;1.50;;;;;;;17.79;49.59;101080.63;5083282;28;20457;-59
2022/01/03 00:03:47;;;;;;;13.75;1.48;;;;;;;17.77;49.99;101074.53;5050577;28;20099;-58
2022/01/03 00:06:14;;;;;;;11.43;1.25;;;;;;;17.76;50.11;101075.53;5084213;28;20086;-59
2022/01/03 00:08:43;;;;;;;7.95;1.55;;;;;;;17.74;49.96;101077.56;5083740;28;20472;-59
2022/01/03 00:11:13;;;;;;;13.57;1.88;;;;;;;17.75;49.62;101078.41;5080963;28;20166;-57
2022/01/03 00:13:42;;;;;;;11.10;3.70;;;;;;;17.73;49.43;101086.69;5086373;28;20025;-57
2022/01/03 00:16:07;;;;;;;7.80;1.63;;;;;;;17.73;49.24;101075.00;5076100;28;20020;-58
2022/01/03 00:18:33;;;;;;;6.60;1.23;;;;;;;17.75;49.65;101089.25;5056072;28;20413;-58
2022/01/03 00:20:59;;;;;;;17.45;2.35;;;;;;;17.76;50.53;101089.06;5074128;28;20036;-59
2022/01/03 00:23:27;;;;;;;6.65;1.40;;;;;;;17.75;50.03;101089.25;5073823;28;20107;-58
2022/01/03 00:25:58;;;;;;;12.48;1.50;;;;;;;17.74;49.98;101083.00;5055877;28;20066;-58
2022/01/03 00:28:26;;;;;;;9.10;1.38;;;;;;;17.76;50.03;101086.38;5073426;28;20544;-58
2022/01/03 00:30:54;;;;;;;8.38;2.10;;;;;;;17.76;50.14;101090.94;5055913;28;20048;-58
2022/01/03 00:33:20;;;;;;;7.05;2.08;;;;;;;17.78;49.51;101092.47;5077551;28;20048;-57
2022/01/03 00:35:53;;;;;;;16.10;1.85;;;;;;;17.80;48.94;101092.31;5093051;28;20032;-58
2022/01/03 00:38:19;;;;;;;6.15;1.92;;;;;;;17.79;49.03;101093.31;5075508;28;20465;-58
2022/01/03 00:40:45;;;;;;;9.73;1.52;;;;;;;17.79;49.63;101094.16;5093805;28;20032;-58
2022/01/03 00:43:10;;;;;;;13.52;3.40;;;;;;;17.79;49.96;101091.44;5075375;28;20385;-58
2022/01/03 00:45:35;;;;;;;10.98;1.45;;;;;;;17.78;48.81;101095.16;5075846;28;20066;-59
2022/01/03 00:48:06;;;;;;;6.15;2.05;;;;;;;17.76;49.86;101093.63;5093643;28;20028;-58
2022/01/03 00:50:31;;;;;;;9.00;2.67;;;;;;;17.77;49.23;101093.50;5075701;28;20034;-58
2022/01/03 00:52:57;;;;;;;8.45;1.63;;;;;;;17.76;49.51;101099.91;5093472;28;20031;-58
2022/01/03 00:55:22;;;;;;;7.70;2.03;;;;;;;17.74;49.66;101104.66;5093463;28;20047;-58
2022/01/03 00:58:06;;;;;;;7.60;1.40;;;;;;;17.74;49.05;101103.81;5075724;28;20028;-59
2022/01/03 01:00:36;;;;;;;11.27;1.38;;;;;;;17.75;49.24;101111.78;5091013;28;20020;-59
2022/01/03 01:03:14;;;;;;;8.57;2.17;;;;;;;17.77;49.91;101108.91;5075030;28;20024;-58
2022/01/03 01:05:42;;;;;;;10.07;1.67;;;;;;;17.78;49.88;101116.03;5074203;28;20024;-58
2022/01/03 01:08:07;;;;;;;5.75;2.42;;;;;;;17.78;49.89;101116.84;5092923;28;20057;-58
2022/01/03 01:10:38;;;;;;;12.35;1.85;;;;;;;17.78;49.74;101116.03;5075094;28;20020;-58
2022/01/03 01:13:07;;;;;;;12.10;1.38;;;;;;;17.79;48.95;101115.84;5093530;28;20483;-58
2022/01/03 01:15:34;;;;;;;10.77;1.73;;;;;;;17.81;48.58;101123.81;5093622;28;20055;-59
2022/01/03 01:18:03;;;;;;;5.55;1.33;;;;;;;17.81;48.78;101127.34;5093531;28;20012;-58
2022/01/03 01:20:28;;;;;;;5.75;1.75;;;;;;;17.82;49.20;101129.06;5093577;28;20403;-59
2022/01/03 01:22:54;;;;;;;13.38;1.30;;;;;;;17.76;49.95;101121.59;5075121;28;20031;-57
2022/01/03 01:27:52;;;;;;;9.88;2.47;;;;;;;17.78;48.75;101114.13;5093231;28;20031;-59
2022/01/03 01:30:24;;;;;;;9.60;1.27;;;;;;;17.81;49.36;101119.22;5093611;28;20606;-58
2022/01/03 01:33:02;;;;;;;9.73;1.30;;;;;;;17.78;49.04;101129.56;5093437;28;20522;-58
2022/01/03 01:35:43;;;;;;;11.05;1.42;;;;;;;17.80;49.88;101125.69;5093502;28;20040;-58
2022/01/03 01:38:15;;;;;;;4.45;0.98;;;;;;;17.78;49.81;101127.69;5093073;28;20034;-58
2022/01/03 01:40:47;;;;;;;9.90;1.98;;;;;;;17.76;49.47;101127.00;5093311;28;20024;-59
2022/01/03 01:43:14;;;;;;;13.00;1.67;;;;;;;17.77;49.33;101141.41;5075144;28;20111;-59
2022/01/03 01:45:42;;;;;;;15.02;1.55;;;;;;;17.77;48.93;101136.00;5093075;28;20085;-58
2022/01/03 01:48:11;;;;;;;7.70;1.33;;;;;;;17.72;48.86;101133.81;5092391;28;20024;-57
2022/01/03 01:50:39;;;;;;;11.65;1.42;;;;;;;17.75;49.37;101127.19;5092914;28;20050;-58
2022/01/03 01:53:05;;;;;;;9.48;1.60;;;;;;;17.74;49.23;101126.34;5093045;28;20051;-58
2022/01/03 01:55:30;;;;;;;7.53;0.93;;;;;;;17.72;48.50;101122.97;5092990;28;20028;-58
2022/01/03 01:58:03;;;;;;;7.13;2.10;;;;;;;17.68;49.31;101127.00;5092836;28;20046;-58
2022/01/03 02:00:28;;;;;;;;;;;;;;;17.65;49.92;101132.75;5093342;28;20484;-58
2022/01/03 02:03:02;;;;;;;8.38;1.48;;;;;;;17.63;48.66;101132.09;5093045;28;19911;-58
2022/01/03 02:05:34;;;;;;;5.15;1.40;;;;;;;17.64;48.49;101124.81;5093211;28;20052;-58
2022/01/03 02:08:25;;;;;;;9.32;1.48;;;;;;;17.61;49.14;101120.59;5074864;28;20024;-58
2022/01/03 02:11:13;;;;;;;6.40;1.17;;;;;;;17.62;49.58;101140.38;5081764;28;20059;-58
2022/01/03 02:13:39;;;;;;;11.27;1.13;;;;;;;17.61;49.16;101133.28;5092649;28;20032;-59
2022/01/03 02:16:04;;;;;;;7.40;1.00;;;;;;;17.63;48.45;101132.09;5092786;28;20055;-57
2022/01/03 02:18:31;;;;;;;9.85;1.38;;;;;;;17.64;49.57;101141.94;5092669;28;20024;-58
2022/01/03 02:20:57;;;;;;;13.27;1.83;;;;;;;17.65;48.39;101140.03;5093287;28;20102;-58
2022/01/03 02:23:23;;;;;;;12.90;1.40;;;;;;;17.64;49.05;101135.66;5092783;28;20028;-58
2022/01/03 02:25:48;;;;;;;10.60;1.13;;;;;;;17.64;48.78;101139.22;5092701;28;20094;-58
2022/01/03 02:28:16;;;;;;;7.18;1.17;;;;;;;17.68;48.46;101142.41;5092714;28;20059;-58
2022/01/03 02:30:42;;;;;;;4.07;1.13;;;;;;;17.69;48.50;101144.97;5092807;28;20040;-58
2022/01/03 02:33:07;;;;;;;7.32;1.85;;;;;;;17.70;48.57;101146.66;5072303;28;20030;-59
2022/01/03 02:35:38;;;;;;;10.02;1.65;;;;;;;17.72;48.86;101154.63;5072430;28;20032;-58
2022/01/03 02:38:04;;;;;;;8.98;0.95;;;;;;;17.71;49.06;101152.91;5054544;28;20119;-58
2022/01/03 02:40:30;;;;;;;10.20;1.70;;;;;;;17.70;48.30;101146.66;5072310;28;20032;-58
2022/01/03 02:42:55;;;;;;;5.72;0.95;;;;;;;17.70;48.80;101146.66;5072258;28;20433;-58
2022/01/03 02:45:23;;;;;;;6.80;0.93;;;;;;;17.72;48.43;101144.63;5072286;28;20090;-58
2022/01/03 02:47:50;;;;;;;7.22;1.30;;;;;;;17.70;48.72;101146.66;5072025;28;20025;-58
2022/01/03 02:50:16;;;;;;;11.80;2.08;;;;;;;17.71;48.43;101148.34;5054436;28;20024;-58
2022/01/03 02:52:42;;;;;;;10.02;1.35;;;;;;;17.71;48.68;101150.22;5072300;28;20035;-58
2022/01/03 02:55:09;;;;;;;6.68;2.38;;;;;;;17.67;48.86;101149.69;5072048;28;20033;-58
2022/01/03 02:57:46;;;;;;;5.95;1.88;;;;;;;17.67;49.10;101152.41;5072489;28;20017;-58
2022/01/03 03:00:15;;;;;;;7.10;1.83;;;;;;;17.65;48.24;101143.59;5074619;28;20053;-58
2022/01/03 03:02:41;;;;;;;6.10;1.58;;;;;;;17.65;48.70;101143.59;5058007;28;20063;-58
2022/01/03 03:05:08;;;;;;;10.40;1.60;;;;;;;17.65;49.51;101142.75;5075532;28;20055;-58
2022/01/03 03:07:33;;;;;;;7.93;1.45;;;;;;;17.64;48.98;101141.06;5075672;28;20039;-58
2022/01/03 03:09:59;;;;;;;9.40;1.33;;;;;;;17.63;49.07;101140.22;5075575;28;20029;-59
2022/01/03 03:12:26;;;;;;;6.30;1.33;;;;;;;17.64;48.75;101144.63;5075588;28;20032;-58
2022/01/03 03:14:52;;;;;;;11.35;1.63;;;;;;;17.62;49.10;101143.94;5075619;28;20023;-58
2022/01/03 03:17:18;;;;;;;8.45;1.25;;;;;;;17.60;48.08;101143.25;5075491;28;20111;-58
2022/01/03 03:19:54;;;;;;;7.18;1.38;;;;;;;17.58;49.07;101147.16;5075376;28;20020;-59
2022/01/03 03:22:19;;;;;;;8.10;1.50;;;;;;;17.54;48.97;101149.34;5075367;28;20111;-58
2022/01/03 03:24:44;;;;;;;10.57;1.67;;;;;;;17.53;48.88;101150.34;5075552;28;20112;-58
2022/01/03 03:27:11;;;;;;;9.65;1.52;;;;;;;17.57;48.72;101150.88;5075266;28;20493;-58
2022/01/03 03:29:43;;;;;;;6.75;1.00;;;;;;;17.55;48.04;101148.34;5075268;28;20032;-58
2022/01/03 03:32:08;;;;;;;8.02;1.42;;;;;;;17.51;48.82;101146.94;5075439;28;20119;-58
2022/01/03 03:34:33;;;;;;;8.05;1.08;;;;;;;17.55;48.66;101159.16;5071238;28;20147;-58
2022/01/03 03:36:59;;;;;;;10.20;1.05;;;;;;;17.58;48.16;101149.88;5095602;28;20421;-58
2022/01/03 03:39:24;;;;;;;4.95;1.75;;;;;;;17.56;48.64;101139.19;5095308;28;20020;-58
2022/01/03 03:41:49;;;;;;;4.00;1.20;;;;;;;17.57;49.09;101138.16;5095279;28;20024;-58
2022/01/03 03:44:15;;;;;;;4.90;0.90;;;;;;;17.52;48.52;101136.94;5095583;28;20073;-58
2022/01/03 03:46:40;;;;;;;8.70;1.23;;;;;;;17.53;49.07;101144.06;5095079;28;20055;-57
2022/01/03 03:49:06;;;;;;;11.55;1.77;;;;;;;17.52;48.65;101137.78;5095369;28;20062;-59
2022/01/03 03:51:35;;;;;;;10.77;3.00;;;;;;;17.53;48.68;101127.81;5095383;28;20031;-58
2022/01/03 03:54:00;;;;;;;3.08;0.73;;;;;;;17.53;47.89;101139.50;5095235;28;20055;-58
2022/01/03 03:56:25;;;;;;;10.70;1.30;;;;;;;17.50;48.31;101134.41;5095144;28;20450;-59
2022/01/03 03:58:51;;;;;;;11.30;1.15;;;;;;;17.49;48.34;101143.53;5095144;28;20024;-58
2022/01/03 04:01:16;;;;;;;8.07;0.80;;;;;;;17.47;49.12;101129.31;5095098;28;20032;-59
2022/01/03 04:03:41;;;;;;;7.85;1.00;;;;;;;17.48;48.42;101131.00;5094964;28;20084;-57
2022/01/03 04:06:07;;;;;;;9.52;0.93;;;;;;;17.48;48.10;101131.00;5094719;28;20024;-58
2022/01/03 04:08:32;;;;;;;18.85;1.20;;;;;;;17.48;48.17;101125.59;5094706;28;20074;-59
2022/01/03 04:10:59;;;;;;;8.85;1.05;;;;;;;17.47;49.00;101129.31;5094167;28;20497;-58
2022/01/03 04:13:24;;;;;;;9.95;1.13;;;;;;;17.53;48.51;101127.81;5094606;28;20059;-57
2022/01/03 04:15:49;;;;;;;12.85;1.02;;;;;;;17.55;48.09;101125.81;5094733;28;20093;-59
2022/01/03 04:18:15;;;;;;;13.85;1.83;;;;;;;17.54;47.88;101130.38;5076804;28;20376;-58
2022/01/03 04:20:40;;;;;;;8.73;1.42;;;;;;;17.51;47.48;101122.53;5094631;28;20024;-58
2022/01/03 04:23:05;;;;;;;13.00;1.80;;;;;;;17.53;47.79;101125.09;5094765;28;20016;-58
2022/01/03 04:25:31;;;;;;;10.38;1.50;;;;;;;17.52;48.78;101124.25;5094391;28;20103;-58
2022/01/03 04:27:56;;;;;;;8.60;1.50;;;;;;;17.52;48.35;101132.38;5094379;28;20056;-57
2022/01/03 04:30:21;;;;;;;16.30;1.70;;;;;;;17.52;48.85;101121.53;5076210;28;20067;-58
2022/01/03 04:32:47;;;;;;;4.32;1.05;;;;;;;17.53;48.16;101117.84;5094195;28;20027;-58
2022/01/03 04:35:13;;;;;;;10.93;1.25;;;;;;;17.53;48.19;101108.84;5075219;28;20052;-58
2022/01/03 04:37:38;;;;;;;12.63;1.38;;;;;;;17.55;48.25;101114.97;5074030;28;20032;-59
2022/01/03 04:40:04;;;;;;;4.00;0.88;;;;;;;17.58;48.65;101118.22;5073742;28;20031;-58
2022/01/03 04:42:30;;;;;;;7.32;1.73;;;;;;;17.57;48.27;101108.38;5073520;28;20413;-57
2022/01/03 04:44:56;;;;;;;6.28;1.65;;;;;;;17.57;48.43;101108.38;5073921;28;20025;-58
2022/01/03 04:47:22;;;;;;;8.68;2.17;;;;;;;17.57;48.44;101102.94;5055613;28;20066;-58
2022/01/03 04:49:47;;;;;;;8.10;1.10;;;;;;;17.55;48.29;101105.00;5073592;28;20128;-58
2022/01/03 04:52:12;;;;;;;5.20;1.13;;;;;;;17.54;48.61;101108.69;5073657;28;20020;-59
2022/01/03 04:54:38;;;;;;;7.82;1.05;;;;;;;17.53;47.59;101098.88;5073796;28;20028;-58
2022/01/03 04:57:03;;;;;;;14.07;1.58;;;;;;;17.53;48.46;101101.59;5073555;28;20100;-58
2022/01/03 04:59:29;;;;;;;6.18;1.42;;;;;;;17.53;48.47;101101.59;5055806;28;20086;-59
2022/01/03 05:01:54;;;;;;;7.45;1.30;;;;;;;17.52;48.07;101097.16;5073714;28;20535;-58
2022/01/03 05:04:19;;;;;;;11.15;1.80;;;;;;;17.53;48.32;101100.72;5073528;28;20542;-57
2022/01/03 05:06:45;;;;;;;14.82;1.30;;;;;;;17.53;48.41;101107.00;5073487;28;20020;-58
2022/01/03 05:09:10;;;;;;;2.03;1.00;;;;;;;17.52;47.83;101099.88;5073757;28;20024;-58
2022/01/03 05:11:36;;;;;;;6.30;1.08;;;;;;;17.54;47.87;101099.72;5055545;28;20393;-57
2022/01/03 05:14:01;;;;;;;13.05;1.98;;;;;;;17.50;48.91;101101.91;5073171;28;20111;-59
2022/01/03 05:16:26;;;;;;;5.28;1.17;;;;;;;17.53;48.31;101098.03;5073244;28;20067;-58
2022/01/03 05:18:52;;;;;;;16.27;2.30;;;;;;;17.54;48.16;101097.00;5055638;28;20052;-58
2022/01/03 05:21:17;;;;;;;4.18;1.15;;;;;;;17.54;48.63;101100.56;5073216;28;20039;-58
2022/01/03 05:23:42;;;;;;;11.43;3.15;;;;;;;17.52;48.27;101093.59;5073084;28;20518;-58
2022/01/03 05:26:08;;;;;;;14.20;2.55;;;;;;;17.53;48.05;101093.44;5073020;28;20028;-58
2022/01/03 05:28:33;;;;;;;13.05;1.52;;;;;;;17.51;48.97;101092.75;5055058;28;20028;-58
2022/01/03 05:30:58;;;;;;;7.18;1.38;;;;;;;17.55;48.48;101088.75;5055004;28;20062;-59
2022/01/03 05:33:24;;;;;;;10.85;1.20;;;;;;;17.51;48.62;101073.78;5077108;28;20048;-58
2022/01/03 05:35:49;;;;;;;6.80;0.93;;;;;;;17.59;48.05;101089.25;5093110;28;20071;-59
2022/01/03 05:38:15;;;;;;;7.75;1.65;;;;;;;17.57;48.83;101085.84;5093246;28;20023;-58
2022/01/03 05:40:40;;;;;;;9.27;1.27;;;;;;;17.55;48.45;101088.75;5093138;28;20027;-58
2022/01/03 05:43:05;;;;;;;10.38;1.77;;;;;;;17.51;48.82;101084.63;5093324;28;20020;-58
2022/01/03 05:45:31;;;;;;;9.98;2.05;;;;;;;17.56;48.72;101079.56;5093192;28;20385;-58
2022/01/03 05:47:56;;;;;;;11.85;1.67;;;;;;;17.54;48.56;101078.91;5093207;28;20024;-58
2022/01/03 05:50:22;;;;;;;10.90;1.20;;;;;;;17.54;48.78;101080.75;5093029;28;20024;-58
2022/01/03 05:52:48;;;;;;;7.93;1.42;;;;;;;17.54;48.49;101086.19;5092990;28;20026;-58
2022/01/03 05:55:13;;;;;;;7.75;1.42;;;;;;;17.52;48.23;101086.34;5092859;28;20103;-58
2022/01/03 05:57:42;;;;;;;10.10;1.27;;;;;;;17.50;48.50;101080.25;5093090;28;20042;-58
2022/01/03 06:00:11;;;;;;;7.35;1.33;;;;;;;17.49;48.19;101083.94;5093351;28;20028;-57
2022/01/03 06:02:41;;;;;;;12.27;2.92;;;;;;;17.48;47.63;101076.84;5091691;28;20431;-58
2022/01/03 06:05:07;;;;;;;6.75;1.20;;;;;;;17.48;48.49;101076.84;5092931;28;20050;-58
2022/01/03 06:07:33;;;;;;;9.73;1.77;;;;;;;17.48;48.19;101076.84;5092582;28;20020;-58
2022/01/03 06:09:58;;;;;;;8.75;1.45;;;;;;;17.50;47.55;101080.25;5092740;28;20439;-59
2022/01/03 06:12:23;;;;;;;16.73;1.73;;;;;;;17.50;48.44;101069.41;5092899;28;20031;-57
2022/01/03 06:14:49;;;;;;;6.43;1.15;;;;;;;17.54;47.81;101081.63;5074912;28;20535;-57
2022/01/03 06:17:15;;;;;;;15.50;1.58;;;;;;;17.52;49.31;101088.19;5092727;28;20012;-58
2022/01/03 06:19:41;;;;;;;15.45;2.78;;;;;;;17.50;47.95;101082.09;5092713;28;20059;-58
2022/01/03 06:22:08;;;;;;;11.27;1.50;;;;;;;17.51;48.96;101073.78;5074672;28;20028;-58
2022/01/03 06:24:36;;;;;;;9.85;0.95;;;;;;;17.53;48.87;101065.50;5092849;28;20103;-58
2022/01/03 06:27:01;;;;;;;13.90;2.17;;;;;;;17.55;48.21;101060.78;5092599;28;20028;-58
2022/01/03 06:29:27;;;;;;;10.30;1.23;;;;;;;17.56;48.12;101057.91;5093113;28;20036;-58
2022/01/03 06:31:52;;;;;;;15.63;2.55;;;;;;;17.58;48.51;101055.91;5092800;28;20028;-57
2022/01/03 06:34:18;;;;;;;11.95;1.23;;;;;;;17.58;48.07;101055.03;5093772;28;20669;-58
2022/01/03 06:36:44;;;;;;;15.68;1.25;;;;;;;17.58;49.07;101055.91;5061719;28;20036;-58
2022/01/03 06:39:11;;;;;;;11.45;2.13;;;;;;;17.60;48.12;101053.00;5096607;28;20439;-58
2022/01/03 06:41:37;;;;;;;8.38;1.33;;;;;;;17.57;48.17;101037.94;5096560;28;20111;-58
2022/01/03 06:44:03;;;;;;;14.23;1.90;;;;;;;17.58;48.51;101045.06;5096277;28;20120;-59
2022/01/03 06:46:30;;;;;;;17.05;2.65;;;;;;;17.58;48.46;101045.06;5096429;28;20103;-58
2022/01/03 06:48:55;;;;;;;15.30;2.15;;;;;;;17.57;47.93;101037.94;5096279;28;20389;-58
2022/01/03 06:51:20;;;;;;;8.20;1.25;;;;;;;17.54;48.21;101032.84;5078169;28;20028;-58
2022/01/03 06:53:46;;;;;;;5.47;1.25;;;;;;;17.56;48.47;101036.22;5096080;28;20055;-58
2022/01/03 06:56:11;;;;;;;9.93;1.50;;;;;;;17.53;47.81;101042.00;5096146;28;20065;-58
2022/01/03 06:58:38;;;;;;;7.15;1.48;;;;;;;17.48;48.88;101039.75;5096045;28;20027;-58
2022/01/03 07:01:04;;;;;;;4.68;1.27;;;;;;;17.49;48.33;101035.19;5096183;28;20043;-59
2022/01/03 07:03:29;;;;;;;16.27;2.30;;;;;;;17.48;48.63;101028.94;5077787;28;20028;-59
2022/01/03 07:05:54;;;;;;;8.95;1.60;;;;;;;17.50;48.53;101026.06;5095864;28;20035;-59
2022/01/03 07:08:21;;;;;;;9.95;1.48;;;;;;;17.51;48.79;101038.56;5077583;28;20028;-60
2022/01/03 07:10:47;;;;;;;6.97;1.63;;;;;;;17.50;48.42;101036.91;5095779;28;20093;-59
2022/01/03 07:13:13;;;;;;;6.53;1.75;;;;;;;17.50;48.52;101036.06;5095975;28;20486;-58
2022/01/03 07:21:06;;;;;;;18.65;2.03;;;;;;;17.36;48.59;101014.03;5095829;28;20046;-58
2022/01/03 07:23:31;;;;;;;7.50;1.55;;;;;;;17.34;49.20;101010.63;5095865;28;20395;-58
2022/01/03 07:25:56;;;;;;;8.43;1.98;;;;;;;17.33;49.62;101018.94;5077587;28;20024;-59
2022/01/03 07:28:22;;;;;;;7.55;1.70;;;;;;;17.32;49.17;101006.41;5095368;28;20111;-58
2022/01/03 07:30:47;;;;;;;13.35;2.78;;;;;;;17.31;48.80;101020.94;5095580;28;20050;-58
2022/01/03 07:33:13;;;;;;;8.10;1.40;;;;;;;17.30;48.60;101014.72;5077486;28;20225;-58
2022/01/03 07:35:38;;;;;;;11.38;1.58;;;;;;;17.31;48.53;101020.94;5095695;28;20489;-58
2022/01/03 07:38:04;;;;;;;18.00;2.92;;;;;;;17.33;49.87;101018.94;5095606;28;20027;-59
2022/01/03 07:40:30;;;;;;;9.60;1.58;;;;;;;17.34;49.21;101009.78;5095268;28;20020;-59
2022/01/03 07:42:57;;;;;;;9.80;2.20;;;;;;;17.32;48.36;101011.81;5095658;28;20488;-58
2022/01/03 07:45:22;;;;;;;8.45;1.67;;;;;;;17.34;49.17;101021.47;5093935;28;20028;-58
2022/01/03 07:47:47;;;;;;;12.75;1.90;;;;;;;17.31;49.14;101015.53;5094810;28;20109;-58
2022/01/03 07:50:13;;;;;;;7.35;1.67;;;;;;;17.33;49.11;101024.38;5096031;28;20448;-59
2022/01/03 07:52:39;;;;;;;13.07;2.30;;;;;;;17.34;49.38;101026.03;5060161;28;20024;-58
2022/01/03 07:55:06;;;;;;;13.88;1.77;;;;;;;17.36;49.23;101027.56;5095133;28;20102;-58
2022/01/03 07:57:32;;;;;;;13.30;2.35;;;;;;;17.38;49.07;101027.41;5094745;28;20032;-59
2022/01/03 07:59:57;;;;;;;15.23;1.63;;;;;;;17.39;49.24;101039.94;5094862;28;20020;-59
2022/01/03 08:02:23;;;;;;;13.93;1.67;;;;;;;17.39;49.36;101045.34;5094720;28;20419;-58
2022/01/03 08:04:48;;;;;;;14.95;1.23;;;;;;;17.37;48.82;101041.94;5094821;28;20046;-59
2022/01/03 08:07:14;;;;;;;11.63;1.63;;;;;;;17.40;48.53;101047.88;5094745;28;20023;-58
2022/01/03 08:09:39;;;;;;;9.25;1.67;;;;;;;17.41;49.08;101049.59;5094768;28;20044;-59
2022/01/03 08:12:05;;;;;;;7.10;1.88;;;;;;;17.42;49.19;101039.56;5094637;28;20035;-58
2022/01/03 08:14:32;;;;;;;12.70;1.60;;;;;;;17.45;49.95;101041.94;5094887;28;20032;-59
2022/01/03 08:16:57;;;;;;;9.35;1.80;;;;;;;17.48;49.63;101049.75;5076627;28;20016;-58
2022/01/03 08:19:23;;;;;;;8.93;1.42;;;;;;;17.50;49.15;101058.56;5094514;28;20020;-58
2022/01/03 08:21:48;;;;;;;9.32;1.38;;;;;;;17.51;48.93;101052.13;5095096;28;20036;-59
2022/01/03 08:24:14;;;;;;;10.75;2.35;;;;;;;17.54;49.25;101059.94;5094598;28;20111;-59
2022/01/03 08:26:40;;;;;;;10.88;1.50;;;;;;;17.63;48.61;101064.34;5076906;28;20111;-58
2022/01/03 08:29:05;;;;;;;11.35;1.80;;;;;;;17.68;48.54;101056.56;5094327;28;20029;-58
2022/01/03 08:31:31;;;;;;;9.10;1.85;;;;;;;17.71;48.02;101056.22;5094611;28;20024;-58
2022/01/03 08:33:56;;;;;;;10.27;1.70;;;;;;;17.75;48.39;101051.31;5076150;28;20052;-58
2022/01/03 08:36:22;;;;;;;7.03;1.40;;;;;;;17.79;48.29;101050.81;5094632;28;20528;-58
2022/01/03 08:38:47;;;;;;;9.88;1.65;;;;;;;17.83;48.41;101049.47;5076970;28;20032;-58
2022/01/03 08:41:13;;;;;;;18.15;2.22;;;;;;;17.82;48.21;101053.19;5076667;28;20039;-60
2022/01/03 08:43:39;;;;;;;9.68;1.30;;;;;;;17.86;48.76;101054.53;5094660;28;20032;-58
2022/01/03 08:46:04;;;;;;;8.63;1.50;;;;;;;17.88;48.37;101051.66;5094565;28;20067;-58
2022/01/03 08:48:30;;;;;;;12.30;2.17;;;;;;;17.89;48.91;101046.06;5094444;28;20024;-58
2022/01/03 08:50:55;;;;;;;5.63;2.03;;;;;;;17.88;48.79;101044.38;5094351;28;20047;-58
2022/01/03 08:53:26;;;;;;;6.03;2.10;;;;;;;17.89;48.51;101037.94;5076408;28;20067;-58
2022/01/03 08:55:51;;;;;;;7.90;1.27;;;;;;;17.92;48.09;101037.56;5094656;28;20076;-58
2022/01/03 08:58:18;;;;;;;6.30;1.25;;;;;;;17.95;47.84;101044.53;5075732;28;20024;-59
2022/01/03 09:00:44;;;;;;;6.28;1.35;;;;;;;17.94;47.99;101035.56;5094233;28;20509;-58
2022/01/03 09:03:10;;;;;;;8.45;1.67;;;;;;;17.96;48.18;101027.22;5094362;28;20107;-58
2022/01/03 09:05:35;;;;;;;9.63;1.30;;;;;;;17.95;47.74;101026.38;5075762;28;20480;-58
2022/01/03 09:08:01;;;;;;;7.00;1.17;;;;;;;17.99;48.02;101037.75;5075969;28;20419;-59
2022/01/03 09:10:27;;;;;;;8.02;1.33;;;;;;;17.97;47.51;101035.22;5093929;28;20024;-59
2022/01/03 09:12:52;;;;;;;10.65;1.25;;;;;;;17.99;47.78;101027.75;5093982;28;20028;-58
2022/01/03 09:15:17;;;;;;;15.52;1.58;;;;;;;18.02;46.99;101030.13;5093906;28;20028;-58
2022/01/03 09:17:43;;;;;;;8.75;1.48;;;;;;;18.04;48.30;101035.34;5076042;28;20024;-59
2022/01/03 09:20:09;;;;;;;10.75;1.90;;;;;;;18.04;47.96;101030.78;5094153;28;20043;-58
2022/01/03 09:22:39;;;;;;;4.60;1.25;;;;;;;18.05;47.34;101042.47;5093972;28;20031;-58
2022/01/03 09:30:14;;;;;;;16.77;2.22;;;;;;;18.11;48.38;101019.25;5093745;28;20058;-59
2022/01/03 09:32:40;;;;;;;10.82;1.45;;;;;;;18.18;47.93;101020.22;5093657;28;20036;-58
2022/01/03 09:35:06;;;;;;;10.68;1.63;;;;;;;18.21;47.33;101022.59;5079254;28;20127;-58
2022/01/03 09:37:35;;;;;;;10.50;1.65;;;;;;;18.21;47.17;101034.31;5073803;28;20048;-58
2022/01/03 09:40:03;;;;;;;13.10;2.08;;;;;;;18.20;48.03;101018.22;5055045;28;20029;-59
2022/01/03 09:42:31;;;;;;;6.05;1.50;;;;;;;18.25;47.75;101021.25;5054906;28;20024;-58
2022/01/03 09:44:58;;;;;;;8.73;1.40;;;;;;;18.24;47.16;100997.84;5072776;28;20112;-58
2022/01/03 09:47:27;;;;;;;7.82;1.42;;;;;;;18.28;47.50;100999.22;5072898;28;20024;-58
2022/01/03 09:49:54;;;;;;;13.90;1.63;;;;;;;18.36;47.78;101020.88;5055285;28;20028;-58
2022/01/03 09:52:22;;;;;;;9.32;1.27;;;;;;;18.34;46.97;101010.19;5073368;28;20040;-58
2022/01/03 09:54:48;;;;;;;12.52;1.17;;;;;;;18.35;48.44;101011.03;5073340;28;20028;-59
2022/01/03 09:57:14;;;;;;;7.93;1.63;;;;;;;18.38;47.35;101016.97;5038765;28;20017;-59
2022/01/03 09:59:41;;;;;;;7.95;2.15;;;;;;;18.48;47.38;101016.81;5072855;28;20033;-58
2022/01/03 10:02:06;;;;;;;14.32;1.80;;;;;;;18.53;47.38;101020.69;5055032;28;20035;-58
2022/01/03 10:04:32;;;;;;;11.70;2.15;;;;;;;18.57;46.87;101015.72;5073438;28;20385;-58
2022/01/03 10:06:58;;;;;;;5.97;1.70;;;;;;;18.61;47.15;101006.22;5073111;28;20024;-58
2022/01/03 10:09:24;;;;;;;10.65;1.27;;;;;;;18.62;47.30;101007.88;5075023;28;20409;-59
2022/01/03 10:11:50;;;;;;;8.40;1.40;;;;;;;18.57;47.30;101004.88;5077498;28;20086;-58
2022/01/03 10:14:16;;;;;;;14.10;1.52;;;;;;;18.58;47.70;101006.56;5077656;28;20024;-58
2022/01/03 10:16:43;;;;;;;6.00;1.17;;;;;;;18.60;47.35;101007.22;5077529;28;20024;-59
2022/01/03 10:19:09;;;;;;;4.95;1.45;;;;;;;18.61;47.75;101011.66;5077376;28;20046;-58
2022/01/03 10:21:41;;;;;;;5.15;0.82;;;;;;;18.63;47.35;100998.75;5077430;28;20060;-58
2022/01/03 10:24:07;;;;;;;15.85;2.22;;;;;;;18.64;47.64;100999.59;5077505;28;20032;-58
2022/01/03 10:26:32;;;;;;;3.80;1.17;;;;;;;18.66;47.54;101003.81;5059071;28;20076;-58
2022/01/03 10:29:15;;;;;;;8.07;1.70;;;;;;;18.67;47.18;100991.94;5077435;28;20020;-58
2022/01/03 10:31:42;;;;;;;5.57;1.77;;;;;;;18.69;46.86;100989.03;5059076;28;20032;-58
2022/01/03 10:34:09;;;;;;;6.18;1.65;;;;;;;18.70;47.37;101002.44;5082694;28;20054;-58
2022/01/03 10:36:36;;;;;;;11.32;1.60;;;;;;;18.76;47.47;100988.16;5097310;28;20016;-58
2022/01/03 10:39:17;;;;;;;9.70;2.00;;;;;;;18.83;47.73;100999.16;5097465;28;20020;-58
2022/01/03 10:41:45;;;;;;;6.75;1.10;;;;;;;18.83;47.40;101000.00;5097295;28;20027;-58
2022/01/03 10:44:10;;;;;;;8.73;1.25;;;;;;;18.82;47.30;100982.00;5079293;28;20496;-58
2022/01/03 10:46:37;;;;;;;7.68;1.20;;;;;;;18.93;47.14;100983.47;5097229;28;20027;-58
2022/01/03 10:49:13;;;;;;;6.03;0.90;;;;;;;18.99;46.95;100972.75;5096906;28;20028;-58
2022/01/03 10:51:39;;;;;;;8.38;1.80;;;;;;;19.01;46.89;100973.41;5097134;28;20039;-58
2022/01/03 10:54:10;;;;;;;8.60;1.55;;;;;;;19.02;47.22;100972.38;5096999;28;20024;-58
2022/01/03 10:56:38;;;;;;;5.97;1.10;;;;;;;19.05;47.24;100979.31;5096982;28;20024;-59
2022/01/03 10:59:14;;;;;;;5.10;1.17;;;;;;;19.05;47.30;100972.03;5097457;28;20459;-59
2022/01/03 11:01:40;;;;;;;5.28;1.02;;;;;;;19.04;46.84;100959.47;5096839;28;20058;-59
2022/01/03 11:04:06;;;;;;;14.05;1.45;;;;;;;19.03;47.66;100968.66;5096788;28;20027;-59
2022/01/03 11:11:49;;;;;;;5.78;1.15;;;;;;;18.99;46.75;100945.59;5096500;28;20073;-58
2022/01/03 11:14:42;;;;;;;6.68;1.52;;;;;;;18.95;46.93;100955.13;5077948;28;20030;-59
2022/01/03 11:17:26;;;;;;;5.40;1.30;;;;;;;18.91;47.35;100940.22;5096225;28;20381;-58
2022/01/03 11:19:52;;;;;;;11.32;1.13;;;;;;;18.87;47.28;100947.03;5096389;28;20156;-58
2022/01/03 11:22:40;;;;;;;8.98;1.10;;;;;;;18.86;46.43;100936.34;5096328;28;20081;-58
2022/01/03 11:25:07;;;;;;;8.35;1.58;;;;;;;18.81;47.02;100936.91;5096387;28;20039;-58
2022/01/03 11:27:38;;;;;;;7.38;1.30;;;;;;;18.76;46.84;100930.34;5095975;28;20115;-59
2022/01/03 11:30:03;;;;;;;7.93;1.15;;;;;;;18.68;47.33;100920.34;5078794;28;20024;-59
2022/01/03 11:32:29;;;;;;;13.40;2.25;;;;;;;18.52;47.47;100910.44;5096329;28;20032;-59
2022/01/03 11:34:56;;;;;;;6.40;1.02;;;;;;;18.63;47.99;100922.75;5095644;28;20044;-58
2022/01/03 11:37:22;;;;;;;10.38;1.77;;;;;;;18.56;47.14;100921.81;5077923;28;20016;-59
2022/01/03 11:39:48;;;;;;;16.45;2.03;;;;;;;18.51;48.01;100935.88;5095779;28;20031;-58